LFMK/CCF METAR and TAF weather

Enter ICAO airport designator
Station Type Date Time Source
LFMK METAR 2021/07/28 04:30 UTC NOAA

LFMK 280430Z AUTO 26007KT 230V290 9999 FEW007/// SCT027/// BKN038/// ///CB 18/18 Q1016 BECMG FEW030 BKN066


Station Type Date Time Source
LFMK Decoded METAR 2021/07/28 04:30 UTC NOAA

Carcassonne, France (LFMK) 43-13N 002-19E 130M
Jul 28, 2021 - 12:30 AM EDT / 2021.07.28 0430 UTC
Wind: from the W (260 degrees) at 8 MPH (7 KT) (direction variable):0
Visibility: greater than 7 mile(s):0
Sky conditions: mostly cloudy
Weather: Cumulonimbus clouds observed
Temperature: 64 F (18 C)
Dew Point: 64 F (18 C)
Relative Humidity: 100%
Pressure (altimeter): 30.00 in. Hg (1016 hPa)
ob: LFMK 280430Z AUTO 26007KT 230V290 9999 FEW007/// SCT027/// BKN038/// ///CB 18/18 Q1016 BECMG FEW030 BKN066
cycle: 4

Station Type Date Time Source
LFMK TAF 2021/07/28 04:43 UTC NOAA

TAF
AMD LFMK 280433Z 2804/2903 28010KT 9999 SCT030 BKN046
TEMPO 2804/2808 SHRA SCT015 SCT030TCU BKN035 PROB40
TEMPO 2804/2807 29015G25KT TSRA SCT015 SCT030CB BKN035

Example: see airport list